Airfield :
LOGIN :

Register | Disclaimer

   EN    FR    IT 

 










Legend :    VFR   Marginal VFR   IFR   Intensive IFR   Very Intensive IFR
Visi :
Ceiling :
>= 8 km
>= 3000ft
5 to 8 km
1000 to 3000 ft
1500m to 5 km
500 to 1000 ft
800 to 1500m
200 to 500 ft
< 800m
< 200 ft
Symbols :   Thunderstorms  Fog  Heavy snow  Heavy precipitations  Wind > 20 kt
SIGMETs :     Misc.  Thunderstorms  Icing  Turbulence  Mountain Waves  Volcanic Ashes







- Airport Elevation : 600 ft
- IATA code : VIE


LOWW - Vienna Schwechat

CURRENT METAR :
  • 152150Z 24006KT CAVOK 17/14 Q1020 TEMPO 28008KT

EXPIRED METARs :
  • 152120Z 24005KT CAVOK 18/14 Q1020 NOSIG
  • 152050Z 23004KT CAVOK 18/14 Q1020 NOSIG
  • 152020Z VRB02KT CAVOK 17/13 Q1020 NOSIG
  • 151950Z 18004KT CAVOK 18/13 Q1020 NOSIG
  • 151920Z VRB02KT CAVOK 18/14 Q1020 NOSIG

TAF TAF LOWW
Valid from the 15 at 21:00 until the 17 at 03:00 UTC


152015Z 1521/1703 28006KT CAVOK TX26/1614Z TN16/1604Z
TEMPO 1521/1606 19003KT
BECMG 1606/1608 31010KT
TEMPO 1617/1624 36004KT
No reported NOTAMs for that airfield.



MET'MAP, your aeronautical weather chart ! - Copyright ORBIFLY December 2007 - Disclaimer

ORBIFLY MET'MAP TEAM :

Programming & Development : Alexandra Zaïnal
Concept & Development : Baudouin d'Aumeries
Co-Development & Prog : Marc-Olivier Méhu
Technical & hardware support : Manuel Goepfert

Contact : metmap@orbifly.com




SOURCES & CREDITS :

   NOAA